Time;durP1;ratioP1;P1;durP2;ratioP2;P2;SDS_P1;SDS_P2;PMS_P1;PMS_P2;Temp;Humidity;BMP_temperature;BMP_pressure;BME280_temperature;BME280_humidity;BME280_pressure;Samples;Min_cycle;Max_cycle;Signal;HPM_P1;HPM_P2
2022/03/22 00:00:36;;;;;;;6.10;3.77;;;16.00;84.40;;;;;;2028491;28;20163;-74
2022/03/22 00:01:35;;;;;;;6.67;3.60;;;16.10;84.80;;;;;;2028455;28;20409;-74
2022/03/22 00:02:34;;;;;;;5.72;4.18;;;16.00;85.10;;;;;;2028404;28;20904;-74
2022/03/22 00:03:32;;;;;;;8.03;4.67;;;16.00;84.40;;;;;;2028417;28;20277;-74
2022/03/22 00:04:31;;;;;;;5.47;4.20;;;16.00;84.40;;;;;;2028330;28;20170;-73
2022/03/22 00:05:30;;;;;;;5.47;3.73;;;16.00;84.70;;;;;;2028403;28;20179;-73
2022/03/22 00:06:30;;;;;;;6.95;4.28;;;16.00;84.40;;;;;;2028363;28;20182;-73
2022/03/22 00:07:28;;;;;;;6.72;4.00;;;16.00;84.30;;;;;;2028387;28;20177;-74
2022/03/22 00:08:27;;;;;;;7.30;4.00;;;16.00;84.50;;;;;;2028317;28;20198;-73
2022/03/22 00:09:25;;;;;;;8.37;4.30;;;16.00;84.90;;;;;;2028331;28;20491;-74
2022/03/22 00:10:25;;;;;;;7.90;4.37;;;16.00;85.10;;;;;;2028443;28;20312;-74
2022/03/22 00:11:24;;;;;;;6.95;5.20;;;16.00;85.00;;;;;;2028174;28;20537;-73
2022/03/22 00:12:23;;;;;;;6.40;4.33;;;16.00;85.20;;;;;;2028208;28;20214;-73
2022/03/22 00:13:22;;;;;;;7.90;4.38;;;16.00;85.40;;;;;;2028457;28;20250;-73
2022/03/22 00:14:20;;;;;;;9.30;5.10;;;16.00;85.40;;;;;;2028507;28;20182;-73
2022/03/22 00:15:20;;;;;;;6.63;4.13;;;16.00;85.60;;;;;;2028570;28;20167;-73
2022/03/22 00:16:19;;;;;;;7.45;4.55;;;16.00;85.60;;;;;;2028354;28;20171;-73
2022/03/22 00:17:17;;;;;;;11.53;4.60;;;16.00;85.40;;;;;;2027906;28;20190;-74
2022/03/22 00:18:18;;;;;;;6.10;4.10;;;16.00;85.40;;;;;;2027835;28;20210;-74
2022/03/22 00:19:16;;;;;;;7.63;4.63;;;16.00;85.40;;;;;;2027728;28;20171;-73
2022/03/22 00:20:17;;;;;;;7.70;5.53;;;16.00;85.60;;;;;;2027763;28;20667;-73
2022/03/22 00:21:19;;;;;;;7.68;4.40;;;16.00;85.20;;;;;;2028299;28;20171;-74
2022/03/22 00:22:18;;;;;;;7.20;4.85;;;16.00;85.80;;;;;;2028154;28;20414;-73
2022/03/22 00:23:19;;;;;;;5.95;4.63;;;16.00;85.70;;;;;;2028135;28;20481;-74
2022/03/22 00:24:17;;;;;;;8.13;4.18;;;16.00;86.00;;;;;;2028255;28;20218;-73
2022/03/22 00:25:16;;;;;;;6.23;4.03;;;16.00;86.00;;;;;;2028303;28;20232;-72
2022/03/22 00:26:15;;;;;;;7.88;5.45;;;16.10;86.00;;;;;;2028390;28;20522;-73
2022/03/22 00:27:15;;;;;;;6.10;4.30;;;16.00;85.80;;;;;;2028460;28;20349;-73
2022/03/22 00:28:14;;;;;;;7.35;4.55;;;16.00;85.90;;;;;;2028329;28;20592;-73
2022/03/22 00:29:12;;;;;;;6.90;4.55;;;16.00;85.80;;;;;;2028356;28;20635;-74
2022/03/22 00:30:11;;;;;;;4.77;3.77;;;16.10;85.50;;;;;;2028371;28;20183;-73
2022/03/22 00:31:10;;;;;;;9.70;4.50;;;16.00;85.60;;;;;;2027524;28;20195;-73
2022/03/22 00:32:10;;;;;;;5.27;3.70;;;16.00;85.50;;;;;;2027674;28;20236;-73
2022/03/22 00:33:08;;;;;;;6.63;4.30;;;16.00;85.80;;;;;;2027681;28;20210;-73
2022/03/22 00:34:13;;;;;;;4.63;3.50;;;16.00;85.70;;;;;;2027716;28;20182;-73
2022/03/22 00:35:13;;;;;;;5.38;3.85;;;16.00;85.70;;;;;;2027651;28;20178;-74
2022/03/22 00:36:13;;;;;;;4.57;3.45;;;16.00;85.40;;;;;;2028167;28;20178;-74
2022/03/22 00:37:14;;;;;;;8.45;4.82;;;15.90;85.50;;;;;;2028534;28;20216;-73
2022/03/22 00:38:16;;;;;;;5.03;3.55;;;16.00;85.60;;;;;;2028375;28;20174;-73
2022/03/22 00:39:15;;;;;;;6.50;4.50;;;16.00;85.70;;;;;;2028279;28;20708;-74
2022/03/22 00:40:17;;;;;;;7.40;3.90;;;16.00;85.80;;;;;;2028216;28;20600;-74
2022/03/22 00:41:17;;;;;;;7.00;4.45;;;16.00;86.00;;;;;;2028245;28;20170;-73
2022/03/22 00:42:16;;;;;;;5.75;4.18;;;16.00;86.30;;;;;;2028290;28;20190;-72
2022/03/22 00:43:14;;;;;;;5.83;4.33;;;16.10;86.40;;;;;;2028287;28;20175;-72
2022/03/22 00:44:14;;;;;;;5.67;3.77;;;16.00;86.80;;;;;;2028331;28;20167;-74
2022/03/22 00:45:17;;;;;;;5.40;3.80;;;15.90;86.90;;;;;;2028155;28;20912;-73
2022/03/22 00:46:15;;;;;;;5.70;4.20;;;15.90;86.70;;;;;;2028221;28;20175;-73
2022/03/22 00:47:14;;;;;;;6.40;3.77;;;16.00;87.80;;;;;;2028072;28;20683;-73
2022/03/22 00:48:12;;;;;;;5.60;3.90;;;15.90;87.50;;;;;;2028227;28;20534;-73
2022/03/22 00:49:12;;;;;;;7.40;4.20;;;;;;;;;;2028221;28;20279;-74
2022/03/22 00:50:12;;;;;;;6.38;4.22;;;15.90;87.10;;;;;;2028227;28;20160;-73
2022/03/22 00:51:10;;;;;;;8.93;4.57;;;16.00;87.90;;;;;;2028210;28;20179;-73
2022/03/22 00:52:09;;;;;;;4.60;3.53;;;15.90;87.10;;;;;;2028062;28;20332;-74
2022/03/22 00:53:09;;;;;;;6.30;3.90;;;16.00;87.10;;;;;;2028213;28;20266;-74
2022/03/22 00:54:08;;;;;;;7.50;4.47;;;15.90;87.10;;;;;;2028244;28;20194;-73
2022/03/22 00:55:09;;;;;;;6.47;4.25;;;;;;;;;;2028212;28;20178;-74
2022/03/22 00:56:08;;;;;;;6.93;4.53;;;;;;;;;;2028218;28;20670;-74
2022/03/22 00:57:07;;;;;;;4.75;4.25;;;;;;;;;;2028170;28;20548;-74
2022/03/22 00:58:07;;;;;;;7.53;4.95;;;15.90;86.50;;;;;;2028268;28;20216;-73
2022/03/22 01:00:27;;;;;;;5.75;4.13;;;16.00;83.10;;;;;;2028037;28;20151;-73
2022/03/22 01:01:25;;;;;;;6.78;4.10;;;15.90;82.90;;;;;;2027496;28;20214;-73
2022/03/22 01:02:23;;;;;;;4.87;3.83;;;16.00;83.10;;;;;;2027496;28;20701;-73
2022/03/22 01:03:22;;;;;;;7.27;4.63;;;15.90;82.90;;;;;;2028168;28;20210;-74
2022/03/22 01:04:24;;;;;;;4.80;4.03;;;15.90;83.00;;;;;;2028204;28;20209;-74
2022/03/22 01:05:23;;;;;;;7.75;4.22;;;15.90;82.80;;;;;;2027450;28;20256;-74
2022/03/22 01:06:25;;;;;;;8.40;3.90;;;16.00;82.90;;;;;;2019718;28;20275;-73
2022/03/22 01:07:25;;;;;;;5.85;3.97;;;15.90;82.90;;;;;;2028650;28;20174;-74
2022/03/22 01:08:23;;;;;;;6.38;3.78;;;15.90;82.90;;;;;;2029816;28;20174;-74
2022/03/22 01:09:21;;;;;;;7.20;3.97;;;15.90;82.90;;;;;;2029700;28;20175;-72
2022/03/22 01:10:22;;;;;;;7.33;4.67;;;15.90;82.80;;;;;;2029639;28;20184;-72
2022/03/22 01:11:21;;;;;;;6.13;4.20;;;15.90;83.00;;;;;;2029513;28;20175;-74
2022/03/22 01:12:19;;;;;;;8.23;4.77;;;15.90;82.90;;;;;;2029411;28;20336;-73
2022/03/22 01:13:20;;;;;;;7.20;4.60;;;15.90;82.90;;;;;;2029684;28;20222;-73
2022/03/22 01:14:19;;;;;;;8.65;5.03;;;15.90;83.00;;;;;;2029719;28;20285;-75
2022/03/22 01:15:32;;;;;;;7.30;5.10;;;15.90;83.10;;;;;;2029626;28;20680;-73
2022/03/22 01:16:31;;;;;;;5.82;3.78;;;15.90;83.10;;;;;;2029834;28;20159;-73
2022/03/22 01:17:31;;;;;;;7.90;4.37;;;15.90;83.10;;;;;;2029588;28;20656;-73
2022/03/22 01:18:31;;;;;;;6.38;4.30;;;15.90;83.10;;;;;;2029705;28;20164;-73
2022/03/22 01:19:30;;;;;;;6.57;4.25;;;15.90;83.00;;;;;;2029592;28;20233;-73
2022/03/22 01:20:29;;;;;;;5.57;3.77;;;15.90;82.90;;;;;;2029582;28;20699;-73
2022/03/22 01:21:28;;;;;;;5.65;4.53;;;15.90;83.10;;;;;;2029775;28;20262;-73
2022/03/22 01:22:27;;;;;;;6.07;3.97;;;15.90;82.80;;;;;;2029334;28;20679;-73
2022/03/22 01:23:26;;;;;;;7.63;4.40;;;15.90;82.90;;;;;;2029405;28;20966;-73
2022/03/22 01:24:25;;;;;;;4.43;3.80;;;15.90;82.90;;;;;;2029512;28;20183;-74
2022/03/22 01:25:27;;;;;;;9.48;4.70;;;15.90;82.90;;;;;;2029530;28;20167;-73
2022/03/22 01:26:25;;;;;;;6.30;3.95;;;15.90;83.00;;;;;;2029546;28;20205;-74
2022/03/22 01:27:24;;;;;;;6.60;4.23;;;15.90;83.00;;;;;;2028862;28;20685;-73
2022/03/22 01:28:22;;;;;;;6.03;4.40;;;15.90;83.00;;;;;;2028939;28;20224;-73
2022/03/22 01:29:21;;;;;;;5.53;3.80;;;15.90;83.00;;;;;;2029596;28;20205;-73
2022/03/22 01:30:21;;;;;;;8.23;4.27;;;15.90;83.10;;;;;;2029601;28;20544;-73
2022/03/22 01:31:19;;;;;;;6.88;4.40;;;15.90;83.10;;;;;;2029457;28;20682;-74
2022/03/22 01:32:18;;;;;;;5.73;4.13;;;15.90;83.00;;;;;;2029433;28;20207;-74
2022/03/22 01:33:16;;;;;;;4.77;3.10;;;15.90;82.90;;;;;;2029690;28;20673;-74
2022/03/22 01:34:15;;;;;;;10.10;4.13;;;15.90;83.00;;;;;;2029078;28;20175;-73
2022/03/22 01:35:14;;;;;;;4.80;3.17;;;15.90;83.00;;;;;;2028903;28;20175;-73
2022/03/22 01:36:12;;;;;;;4.40;3.97;;;15.90;83.10;;;;;;2029287;28;20459;-73
2022/03/22 01:37:11;;;;;;;10.50;5.37;;;15.90;83.00;;;;;;2028798;28;20182;-73
2022/03/22 01:38:10;;;;;;;4.37;3.57;;;15.90;83.30;;;;;;2028985;28;20520;-73
2022/03/22 01:39:08;;;;;;;3.87;3.20;;;15.80;83.00;;;;;;2029558;28;20217;-74
2022/03/22 01:40:08;;;;;;;7.07;3.70;;;15.90;82.90;;;;;;2029510;28;20198;-73
2022/03/22 01:41:07;;;;;;;7.88;4.10;;;15.80;83.20;;;;;;2029516;28;20651;-73
2022/03/22 01:42:07;;;;;;;5.87;3.77;;;15.90;83.20;;;;;;2029486;28;20343;-73
2022/03/22 01:43:06;;;;;;;4.47;4.00;;;15.90;83.20;;;;;;2029500;28;20197;-73
2022/03/22 01:44:05;;;;;;;5.77;3.33;;;15.80;83.00;;;;;;2029462;28;20713;-73
2022/03/22 01:45:04;;;;;;;5.00;3.80;;;15.90;83.30;;;;;;2029470;28;20179;-74
2022/03/22 01:46:03;;;;;;;5.15;3.33;;;15.90;83.30;;;;;;2029390;28;20170;-74
2022/03/22 01:47:03;;;;;;;6.33;4.53;;;15.80;83.20;;;;;;2029601;28;20182;-73
2022/03/22 01:48:04;;;;;;;6.50;4.22;;;15.80;83.40;;;;;;2028517;28;20159;-72
2022/03/22 01:49:03;;;;;;;6.55;4.38;;;15.90;83.50;;;;;;2028724;28;20182;-72
2022/03/22 01:50:03;;;;;;;6.35;3.90;;;15.90;83.30;;;;;;2028698;28;20514;-74
2022/03/22 01:51:01;;;;;;;4.40;3.40;;;15.80;83.20;;;;;;2028880;28;20640;-74
2022/03/22 01:52:02;;;;;;;4.33;3.40;;;15.90;83.20;;;;;;2029267;28;20210;-73
2022/03/22 01:53:00;;;;;;;7.47;4.55;;;15.80;83.20;;;;;;2028981;28;20187;-73
2022/03/22 01:53:59;;;;;;;4.80;3.83;;;15.80;83.20;;;;;;2028797;28;20647;-73
2022/03/22 01:54:58;;;;;;;4.97;4.05;;;15.80;83.20;;;;;;2029254;28;20171;-73
2022/03/22 01:55:57;;;;;;;5.23;3.80;;;15.90;83.50;;;;;;2029342;28;20616;-73
2022/03/22 01:56:56;;;;;;;7.40;4.07;;;15.80;83.20;;;;;;2029301;28;20159;-73
2022/03/22 01:57:56;;;;;;;5.60;4.07;;;15.80;83.40;;;;;;2029438;28;20167;-74
2022/03/22 01:58:55;;;;;;;5.00;3.35;;;15.80;83.40;;;;;;2029203;28;20544;-73
2022/03/22 01:59:54;;;;;;;4.97;3.58;;;15.90;83.60;;;;;;2029227;28;20171;-75
2022/03/22 02:05:51;;;;;;;9.40;3.73;;;15.80;83.40;;;;;;2029372;28;20632;-75
2022/03/22 02:06:06;;;;;;;3.97;3.45;;;15.70;83.70;;;;;;2029224;28;20164;-73
2022/03/22 02:07:05;;;;;;;6.35;3.50;;;15.80;83.70;;;;;;2029240;28;20177;-73
2022/03/22 02:08:08;;;;;;;5.93;3.63;;;15.80;83.80;;;;;;2029284;28;20188;-73
2022/03/22 02:09:06;;;;;;;5.18;4.20;;;15.80;83.70;;;;;;2029371;28;20170;-74
2022/03/22 02:10:07;;;;;;;5.07;3.93;;;15.80;83.90;;;;;;2029294;28;20179;-74
2022/03/22 02:11:05;;;;;;;6.00;3.63;;;15.80;83.70;;;;;;2028880;28;20678;-72
2022/03/22 02:12:04;;;;;;;6.87;4.10;;;15.80;84.00;;;;;;2029151;28;20358;-73
2022/03/22 02:13:03;;;;;;;5.50;3.70;;;15.80;83.70;;;;;;2029299;28;20183;-74
2022/03/22 02:14:01;;;;;;;5.20;3.37;;;15.80;83.70;;;;;;2029159;28;20180;-74
2022/03/22 02:15:02;;;;;;;5.47;3.50;;;15.80;83.70;;;;;;2029171;28;20173;-73
2022/03/22 02:16:04;;;;;;;4.50;3.55;;;15.80;83.70;;;;;;2029208;28;20229;-73
2022/03/22 02:17:09;;;;;;;4.50;3.63;;;15.80;83.80;;;;;;2029214;28;20175;-73
2022/03/22 02:18:08;;;;;;;5.15;3.70;;;15.80;83.70;;;;;;2029116;28;20640;-73
2022/03/22 02:19:09;;;;;;;4.50;3.20;;;15.80;83.70;;;;;;2028406;28;20174;-75
2022/03/22 02:20:08;;;;;;;8.23;4.18;;;15.80;83.70;;;;;;2028528;28;20612;-73
2022/03/22 02:21:07;;;;;;;5.05;3.75;;;15.80;83.70;;;;;;2028425;28;20649;-73
2022/03/22 02:22:11;;;;;;;7.82;3.67;;;15.80;83.80;;;;;;2028770;28;20256;-73
2022/03/22 02:23:12;;;;;;;4.72;3.17;;;15.80;83.80;;;;;;2029148;28;20159;-72
2022/03/22 02:24:11;;;;;;;4.78;3.42;;;15.80;83.80;;;;;;2029100;28;20174;-73
2022/03/22 02:25:15;;;;;;;6.80;3.60;;;15.80;83.90;;;;;;2029297;28;20262;-73
2022/03/22 02:26:14;;;;;;;10.15;4.13;;;15.80;83.80;;;;;;2029274;28;20756;-73
2022/03/22 02:27:12;;;;;;;4.07;3.20;;;15.80;84.00;;;;;;2029168;28;20171;-73
2022/03/22 02:28:12;;;;;;;6.90;4.17;;;15.80;83.90;;;;;;2028382;28;20182;-73
2022/03/22 02:29:11;;;;;;;4.70;3.50;;;15.70;84.50;;;;;;2028619;28;20171;-73
2022/03/22 02:30:11;;;;;;;7.13;3.80;;;15.80;83.90;;;;;;2028222;28;20652;-73
2022/03/22 02:31:10;;;;;;;4.72;3.30;;;15.80;84.00;;;;;;2028594;28;20262;-73
2022/03/22 02:32:10;;;;;;;5.68;3.95;;;15.80;84.00;;;;;;2028898;28;20191;-73
2022/03/22 02:33:10;;;;;;;6.13;3.92;;;15.80;84.10;;;;;;2029038;28;20175;-74
2022/03/22 02:34:08;;;;;;;6.30;3.72;;;15.80;84.10;;;;;;2029167;28;20603;-72
2022/03/22 02:35:08;;;;;;;5.23;3.47;;;15.80;84.10;;;;;;2029128;28;20275;-74
2022/03/22 02:36:07;;;;;;;5.70;3.90;;;15.80;84.00;;;;;;2029256;28;20174;-74
2022/03/22 02:37:07;;;;;;;7.83;3.87;;;15.70;83.90;;;;;;2029132;28;20652;-72
2022/03/22 02:38:07;;;;;;;5.57;3.58;;;15.80;84.00;;;;;;2029055;28;20209;-73
2022/03/22 02:39:05;;;;;;;5.07;3.63;;;15.80;83.90;;;;;;2029093;28;20179;-73
2022/03/22 02:40:07;;;;;;;6.83;3.90;;;15.80;83.90;;;;;;2029199;28;20175;-73
2022/03/22 02:41:06;;;;;;;7.90;3.92;;;15.80;84.20;;;;;;2028869;28;20284;-74
2022/03/22 02:42:04;;;;;;;5.20;3.57;;;15.80;83.90;;;;;;2028965;28;20214;-72
2022/03/22 02:43:03;;;;;;;5.67;4.33;;;15.80;84.00;;;;;;2028979;28;20177;-73
2022/03/22 02:44:02;;;;;;;6.20;4.40;;;15.80;84.10;;;;;;2029027;28;20167;-74
2022/03/22 02:45:01;;;;;;;7.20;4.40;;;15.80;84.10;;;;;;2028788;28;20528;-73
2022/03/22 02:46:00;;;;;;;4.90;3.83;;;15.80;84.00;;;;;;2028909;28;20167;-73
2022/03/22 02:46:58;;;;;;;5.37;4.00;;;15.80;84.10;;;;;;2028955;28;20294;-73
2022/03/22 02:47:58;;;;;;;6.20;3.63;;;15.70;84.10;;;;;;2028927;28;20212;-73
2022/03/22 02:48:56;;;;;;;4.93;4.32;;;15.80;84.20;;;;;;2028991;28;20271;-73
2022/03/22 02:49:55;;;;;;;5.40;3.67;;;15.80;84.10;;;;;;2029007;28;20319;-75
2022/03/22 02:50:53;;;;;;;5.27;3.13;;;15.80;84.10;;;;;;2029118;28;20167;-73
2022/03/22 02:51:51;;;;;;;4.97;3.23;;;15.80;84.20;;;;;;2028303;28;20205;-73
2022/03/22 02:52:51;;;;;;;4.47;3.20;;;15.80;84.40;;;;;;2028549;28;20249;-73
2022/03/22 02:53:49;;;;;;;5.10;3.13;;;15.80;84.20;;;;;;2029054;28;20198;-73
2022/03/22 02:54:47;;;;;;;7.13;4.73;;;15.80;84.40;;;;;;2029132;28;20171;-73
2022/03/22 02:55:47;;;;;;;6.83;3.97;;;15.80;84.30;;;;;;2028700;28;20236;-73
2022/03/22 02:56:46;;;;;;;5.28;3.97;;;15.80;84.40;;;;;;2028813;28;20680;-73
2022/03/22 02:57:44;;;;;;;5.33;3.30;;;15.80;84.40;;;;;;2028945;28;20273;-73
2022/03/22 02:58:43;;;;;;;4.87;3.47;;;15.80;84.80;;;;;;2028887;28;20655;-74
2022/03/22 02:59:41;;;;;;;4.10;3.30;;;15.70;84.60;;;;;;2028823;28;20182;-74
2022/03/22 03:00:40;;;;;;;4.10;3.40;;;15.80;84.50;;;;;;2028969;28;20178;-75
2022/03/22 03:01:38;;;;;;;4.63;3.47;;;15.70;85.00;;;;;;2029032;28;20163;-73
2022/03/22 03:02:48;;;;;;;4.30;3.77;;;15.80;85.00;;;;;;2028865;28;20179;-73
2022/03/22 03:03:46;;;;;;;3.90;3.15;;;15.70;85.00;;;;;;2028984;28;20521;-74
2022/03/22 03:04:45;;;;;;;3.77;2.87;;;15.70;85.20;;;;;;2028856;28;20179;-72
2022/03/22 03:05:43;;;;;;;4.67;3.83;;;15.70;85.10;;;;;;2028290;28;20261;-74
2022/03/22 03:06:42;;;;;;;4.37;3.33;;;15.70;84.90;;;;;;2028162;28;20202;-74
2022/03/22 03:07:42;;;;;;;5.40;3.73;;;15.70;85.10;;;;;;2028132;28;20675;-72
2022/03/22 03:08:42;;;;;;;6.13;4.57;;;15.70;85.40;;;;;;2028702;28;20236;-74
2022/03/22 03:09:40;;;;;;;4.72;3.08;;;15.70;85.30;;;;;;2028082;28;20178;-72
2022/03/22 03:10:40;;;;;;;4.67;3.43;;;15.70;85.30;;;;;;2028256;28;20179;-73
2022/03/22 03:11:38;;;;;;;5.70;3.55;;;15.70;85.40;;;;;;2028637;28;20546;-73
2022/03/22 03:12:37;;;;;;;4.63;3.60;;;15.70;85.40;;;;;;2028757;28;20247;-75
2022/03/22 03:14:53;;;;;;;5.93;4.00;;;15.80;85.50;;;;;;2028671;28;20382;-73
2022/03/22 03:15:52;;;;;;;5.43;3.70;;;15.70;85.60;;;;;;2028708;28;20172;-72
2022/03/22 03:16:50;;;;;;;5.77;3.90;;;15.70;85.50;;;;;;2028758;28;20186;-73
2022/03/22 03:17:48;;;;;;;7.60;4.10;;;15.70;85.80;;;;;;2028729;28;20406;-73
2022/03/22 03:18:49;;;;;;;4.80;3.90;;;15.70;85.50;;;;;;2027924;28;20163;-73
2022/03/22 03:19:47;;;;;;;3.80;3.35;;;15.70;85.60;;;;;;2028031;28;20166;-73
2022/03/22 03:20:46;;;;;;;6.03;3.60;;;15.70;85.40;;;;;;2028651;28;20178;-73
2022/03/22 03:21:44;;;;;;;4.83;3.70;;;15.70;85.60;;;;;;2028553;28;20163;-73
2022/03/22 03:22:44;;;;;;;5.20;3.77;;;15.70;86.20;;;;;;2028817;28;20175;-75
2022/03/22 03:23:43;;;;;;;9.02;3.38;;;15.70;85.40;;;;;;2028663;28;20178;-73
2022/03/22 03:24:41;;;;;;;7.63;3.10;;;15.70;85.60;;;;;;2028686;28;20545;-74
2022/03/22 03:25:40;;;;;;;3.80;3.17;;;15.70;85.40;;;;;;2028575;28;20232;-72
2022/03/22 03:26:38;;;;;;;4.10;3.33;;;15.70;85.50;;;;;;2028583;28;20580;-73
2022/03/22 03:27:37;;;;;;;5.20;3.80;;;15.70;85.50;;;;;;2028624;28;20182;-74
2022/03/22 03:28:36;;;;;;;4.30;3.50;;;15.70;85.70;;;;;;2019913;28;20183;-73
2022/03/22 03:29:34;;;;;;;4.83;2.87;;;15.70;85.60;;;;;;2011991;28;20536;-73
2022/03/22 03:30:34;;;;;;;4.90;3.50;;;15.70;85.70;;;;;;2026843;28;20171;-73
2022/03/22 03:31:33;;;;;;;6.65;3.65;;;15.70;85.80;;;;;;2028586;28;20721;-73
2022/03/22 03:32:32;;;;;;;5.87;3.43;;;15.70;86.00;;;;;;2028573;28;20203;-72
2022/03/22 03:33:30;;;;;;;4.80;3.47;;;15.70;86.40;;;;;;2028624;28;20167;-73
2022/03/22 03:34:29;;;;;;;4.93;3.53;;;15.80;86.00;;;;;;2028586;28;20262;-72
2022/03/22 03:35:27;;;;;;;6.30;3.93;;;15.70;86.20;;;;;;2028630;28;20705;-73
2022/03/22 03:36:26;;;;;;;4.80;3.13;;;15.70;86.00;;;;;;2028727;28;20186;-73
2022/03/22 03:37:27;;;;;;;5.43;3.40;;;15.70;86.10;;;;;;2028613;28;20171;-73
2022/03/22 03:38:26;;;;;;;8.27;4.13;;;15.70;85.90;;;;;;2028608;28;20212;-73
2022/03/22 03:39:24;;;;;;;5.25;3.25;;;15.70;86.00;;;;;;2028321;28;20190;-73
2022/03/22 03:41:53;;;;;;;5.17;3.87;;;15.70;86.00;;;;;;2028567;28;20178;-73
2022/03/22 03:41:54;;;;;;;9.88;3.63;;;15.70;85.90;;;;;;2028362;28;20202;-73
2022/03/22 03:42:52;;;;;;;5.25;3.55;;;15.60;86.00;;;;;;2028601;28;20155;-73
2022/03/22 03:43:51;;;;;;;3.40;3.10;;;15.70;86.00;;;;;;2028517;28;20263;-73
2022/03/22 03:47:26;;;;;;;7.38;4.15;;;15.70;86.20;;;;;;2028514;28;20174;-74
2022/03/22 03:48:24;;;;;;;6.27;3.80;;;15.60;85.90;;;;;;2028657;28;20164;-74
2022/03/22 03:49:23;;;;;;;5.20;3.70;;;15.70;86.00;;;;;;2028683;28;20228;-74
2022/03/22 03:50:22;;;;;;;6.10;4.30;;;15.70;86.00;;;;;;2028621;28;20269;-74
2022/03/22 03:51:21;;;;;;;4.93;3.50;;;15.70;86.20;;;;;;2028427;28;20667;-75
2022/03/22 03:52:23;;;;;;;5.03;3.33;;;15.70;86.00;;;;;;2028498;28;20222;-72
2022/03/22 03:53:23;;;;;;;5.38;3.50;;;15.60;86.30;;;;;;2028510;28;20458;-74
2022/03/22 03:54:21;;;;;;;5.20;3.15;;;15.60;86.10;;;;;;2028674;28;20174;-72
2022/03/22 03:55:20;;;;;;;6.70;3.57;;;15.60;86.30;;;;;;2027870;28;20607;-73
2022/03/22 03:56:19;;;;;;;4.60;3.30;;;15.60;86.50;;;;;;2028033;28;20182;-73
2022/03/22 03:57:19;;;;;;;7.77;3.57;;;15.70;86.30;;;;;;2028529;28;20202;-73
2022/03/22 03:58:18;;;;;;;5.75;3.45;;;15.70;86.40;;;;;;2028691;28;20644;-72
2022/03/22 03:59:16;;;;;;;4.63;2.53;;;15.70;86.60;;;;;;2028352;28;20183;-73
2022/03/22 04:00:15;;;;;;;4.37;3.13;;;15.70;86.80;;;;;;2028605;28;20592;-73
2022/03/22 04:01:14;;;;;;;6.40;3.70;;;15.60;86.60;;;;;;2028413;28;20249;-73
2022/03/22 04:02:12;;;;;;;5.50;3.40;;;15.70;86.80;;;;;;2028581;28;20620;-73
2022/03/22 04:03:11;;;;;;;4.80;3.13;;;15.60;86.60;;;;;;2028454;28;20587;-73
2022/03/22 04:04:10;;;;;;;5.73;3.80;;;15.60;86.60;;;;;;2028502;28;20179;-73
2022/03/22 04:05:11;;;;;;;4.83;3.37;;;15.70;86.50;;;;;;2028384;28;20635;-73
2022/03/22 04:06:10;;;;;;;4.57;3.13;;;15.70;86.60;;;;;;2028640;28;20224;-73
2022/03/22 04:07:10;;;;;;;6.70;3.83;;;15.60;86.30;;;;;;2028372;28;20232;-73
2022/03/22 04:08:09;;;;;;;4.85;3.50;;;15.60;86.40;;;;;;2028543;28;20225;-73
2022/03/22 04:09:08;;;;;;;6.68;4.45;;;15.60;86.50;;;;;;2028337;28;20167;-73
2022/03/22 04:10:07;;;;;;;6.90;3.40;;;15.60;86.40;;;;;;2028432;28;20199;-72
2022/03/22 04:11:05;;;;;;;4.30;2.97;;;15.70;86.50;;;;;;2028350;28;20167;-73
2022/03/22 04:12:05;;;;;;;5.07;3.27;;;15.70;86.50;;;;;;2028445;28;20439;-73
2022/03/22 04:13:04;;;;;;;6.28;3.92;;;15.70;86.50;;;;;;2028527;28;20298;-73
2022/03/22 04:14:02;;;;;;;6.10;3.90;;;15.70;86.60;;;;;;2028708;28;20171;-72
2022/03/22 04:15:01;;;;;;;5.67;2.97;;;15.70;86.20;;;;;;2028972;28;20450;-74
2022/03/22 04:15:59;;;;;;;8.97;4.30;;;15.60;86.40;;;;;;2029953;28;20256;-74
2022/03/22 04:16:58;;;;;;;4.03;2.90;;;15.60;86.30;;;;;;2030100;28;20174;-74
2022/03/22 04:17:59;;;;;;;6.40;3.27;;;15.60;86.60;;;;;;2028844;28;20530;-72
2022/03/22 04:18:58;;;;;;;4.47;3.40;;;15.60;86.50;;;;;;2028406;28;20706;-72
2022/03/22 04:19:56;;;;;;;5.37;3.70;;;15.60;86.70;;;;;;2028678;28;20228;-72
2022/03/22 04:20:55;;;;;;;4.30;3.20;;;15.60;86.60;;;;;;2028415;28;20168;-72
2022/03/22 04:21:53;;;;;;;4.87;3.50;;;15.60;86.30;;;;;;2029293;28;20193;-73
2022/03/22 04:22:52;;;;;;;6.80;4.20;;;15.60;86.40;;;;;;2031694;28;20166;-73
2022/03/22 04:23:51;;;;;;;9.00;3.60;;;15.70;86.50;;;;;;2030056;28;20647;-73
2022/03/22 04:24:50;;;;;;;5.60;3.42;;;15.70;86.60;;;;;;2029991;28;20179;-73
2022/03/22 04:25:50;;;;;;;7.13;3.27;;;15.70;86.30;;;;;;2028930;28;20642;-73
2022/03/22 04:26:49;;;;;;;4.88;3.80;;;15.60;86.30;;;;;;2028988;28;20410;-73
2022/03/22 04:32:59;;;;;;;4.20;3.00;;;15.60;86.80;;;;;;2031079;28;20757;-73
2022/03/22 04:33:58;;;;;;;4.40;3.20;;;15.60;86.40;;;;;;2030515;28;20231;-74
2022/03/22 04:34:56;;;;;;;4.77;3.30;;;15.60;86.30;;;;;;2029447;28;20420;-73
2022/03/22 04:35:55;;;;;;;4.10;2.97;;;15.60;86.30;;;;;;2031171;28;20171;-73
2022/03/22 04:36:57;;;;;;;4.27;3.30;;;15.60;86.60;;;;;;2031851;28;20216;-74
2022/03/22 04:37:56;;;;;;;5.97;3.38;;;15.60;86.80;;;;;;2032808;28;20163;-74
2022/03/22 04:38:55;;;;;;;4.47;3.20;;;15.60;86.70;;;;;;2033598;28;20171;-74
2022/03/22 04:39:54;;;;;;;4.37;3.83;;;15.60;86.80;;;;;;2034008;28;20167;-74
2022/03/22 04:40:53;;;;;;;4.90;3.93;;;15.60;86.60;;;;;;2034001;28;20468;-73
2022/03/22 04:41:52;;;;;;;7.60;3.95;;;15.60;86.40;;;;;;2034052;28;20183;-73
2022/03/22 04:42:51;;;;;;;6.00;3.65;;;15.60;86.50;;;;;;2035702;28;20262;-73
2022/03/22 04:43:50;;;;;;;5.57;3.80;;;15.60;86.20;;;;;;2035777;28;20171;-73
2022/03/22 04:44:50;;;;;;;6.07;3.30;;;15.60;86.80;;;;;;2035404;28;20174;-73
2022/03/22 04:45:49;;;;;;;5.28;3.58;;;15.60;86.50;;;;;;2035302;28;20189;-74
2022/03/22 04:46:47;;;;;;;4.97;3.60;;;15.60;86.30;;;;;;2035632;28;20170;-73
2022/03/22 04:47:46;;;;;;;5.27;3.50;;;15.60;86.50;;;;;;2035397;28;20326;-73
2022/03/22 04:48:45;;;;;;;4.27;3.87;;;15.60;86.50;;;;;;2035652;28;20201;-74
2022/03/22 04:49:44;;;;;;;8.63;4.60;;;15.60;87.10;;;;;;2034656;28;20593;-73
2022/03/22 04:50:42;;;;;;;5.10;3.60;;;15.60;86.80;;;;;;2035038;28;20269;-72
2022/03/22 04:56:51;;;;;;;4.80;3.20;;;15.50;86.70;;;;;;2035237;28;20181;-71
2022/03/22 04:57:51;;;;;;;5.40;3.63;;;15.50;86.60;;;;;;2034099;28;20171;-72
2022/03/22 04:58:51;;;;;;;4.60;3.40;;;15.50;86.90;;;;;;2034469;28;20234;-71
2022/03/22 04:59:50;;;;;;;4.40;3.30;;;15.50;86.60;;;;;;2037086;28;20167;-72
2022/03/22 05:00:49;;;;;;;7.67;3.80;;;15.50;87.30;;;;;;2039404;28;20143;-72
2022/03/22 05:01:50;;;;;;;5.63;3.40;;;15.50;86.40;;;;;;2039614;28;20419;-74
2022/03/22 05:02:48;;;;;;;5.10;3.80;;;15.60;86.60;;;;;;2039438;28;20155;-74
2022/03/22 05:03:47;;;;;;;4.57;3.30;;;15.60;86.70;;;;;;2038800;28;20171;-73
2022/03/22 05:04:45;;;;;;;6.50;4.03;;;15.60;86.60;;;;;;2038662;28;20591;-73
2022/03/22 05:07:04;;;;;;;6.35;3.60;;;15.60;86.70;;;;;;2039348;28;20144;-72
2022/03/22 05:08:04;;;;;;;4.35;3.15;;;15.60;86.90;;;;;;2037296;28;20175;-72
2022/03/22 05:09:03;;;;;;;6.63;3.95;;;15.50;87.00;;;;;;2038113;28;20154;-72
2022/03/22 05:10:02;;;;;;;5.10;3.28;;;15.60;87.40;;;;;;2037340;28;20174;-71
2022/03/22 05:11:01;;;;;;;7.25;3.95;;;15.60;86.90;;;;;;2038075;28;20198;-72
2022/03/22 05:12:02;;;;;;;4.20;3.60;;;15.60;87.00;;;;;;2037089;28;20187;-72
2022/03/22 05:13:01;;;;;;;4.85;3.33;;;15.50;86.70;;;;;;2036172;28;20198;-72
2022/03/22 05:14:01;;;;;;;8.90;3.40;;;15.50;87.20;;;;;;2036718;28;20163;-72
2022/03/22 05:14:59;;;;;;;5.28;4.05;;;15.50;87.10;;;;;;2038245;28;20205;-73
2022/03/22 05:15:58;;;;;;;6.80;4.35;;;15.60;87.30;;;;;;2037799;28;20172;-71
2022/03/22 05:16:58;;;;;;;4.60;3.60;;;15.50;87.30;;;;;;2034682;28;20163;-73
2022/03/22 05:17:57;;;;;;;4.80;3.90;;;15.60;86.90;;;;;;2034734;28;20296;-72
2022/03/22 05:18:57;;;;;;;6.05;3.95;;;15.60;86.80;;;;;;2038963;28;20244;-72
2022/03/22 05:19:55;;;;;;;4.47;3.53;;;15.50;86.60;;;;;;2038766;28;20619;-73
2022/03/22 05:20:54;;;;;;;4.90;3.40;;;15.50;86.20;;;;;;2037352;28;20195;-73
2022/03/22 05:21:55;;;;;;;5.00;3.77;;;15.50;86.40;;;;;;2038274;28;20194;-74
2022/03/22 05:22:53;;;;;;;5.28;3.72;;;15.60;86.90;;;;;;2036144;28;20143;-73
2022/03/22 05:23:53;;;;;;;9.20;3.60;;;15.60;87.10;;;;;;2034930;28;20178;-73
2022/03/22 05:24:53;;;;;;;5.70;3.60;;;15.50;87.10;;;;;;2037581;28;20174;-73
2022/03/22 05:25:52;;;;;;;4.25;3.33;;;15.60;87.30;;;;;;2038657;28;20194;-72
2022/03/22 05:26:50;;;;;;;5.87;3.80;;;15.50;87.40;;;;;;2039067;28;20189;-74
2022/03/22 05:27:49;;;;;;;5.07;4.20;;;15.60;87.30;;;;;;2038581;28;20175;-73
2022/03/22 05:28:47;;;;;;;5.93;3.70;;;15.50;87.40;;;;;;2037880;28;20175;-73
2022/03/22 05:29:46;;;;;;;6.70;3.80;;;15.60;87.30;;;;;;2038223;28;20185;-73
2022/03/22 05:30:44;;;;;;;9.10;4.40;;;15.50;86.70;;;;;;2038261;28;20190;-70